sensor_id;sensor_type;location;lat;lon;timestamp;temperature;humidity
9271;DHT22;4673;53.458;9.940;2022-08-03T00:01:16;19.90;79.40
9271;DHT22;4673;53.458;9.940;2022-08-03T00:03:42;19.90;79.70
9271;DHT22;4673;53.458;9.940;2022-08-03T00:06:08;19.80;79.80
9271;DHT22;4673;53.458;9.940;2022-08-03T00:08:34;19.70;79.90
9271;DHT22;4673;53.458;9.940;2022-08-03T00:10:59;19.60;79.90
9271;DHT22;4673;53.458;9.940;2022-08-03T00:13:26;19.60;80.10
9271;DHT22;4673;53.458;9.940;2022-08-03T00:15:52;19.50;80.30
9271;DHT22;4673;53.458;9.940;2022-08-03T00:18:18;19.40;80.40
9271;DHT22;4673;53.458;9.940;2022-08-03T00:20:44;19.40;80.60
9271;DHT22;4673;53.458;9.940;2022-08-03T00:23:10;19.30;80.90
9271;DHT22;4673;53.458;9.940;2022-08-03T00:25:36;19.30;81.30
9271;DHT22;4673;53.458;9.940;2022-08-03T00:28:05;19.20;81.30
9271;DHT22;4673;53.458;9.940;2022-08-03T00:30:31;19.20;81.50
9271;DHT22;4673;53.458;9.940;2022-08-03T00:32:57;18.90;81.50
9271;DHT22;4673;53.458;9.940;2022-08-03T00:35:24;19.20;81.90
9271;DHT22;4673;53.458;9.940;2022-08-03T00:37:50;19.10;82.00
9271;DHT22;4673;53.458;9.940;2022-08-03T00:40:17;19.10;82.00
9271;DHT22;4673;53.458;9.940;2022-08-03T00:42:51;19.10;82.00
9271;DHT22;4673;53.458;9.940;2022-08-03T00:45:19;19.00;82.00
9271;DHT22;4673;53.458;9.940;2022-08-03T00:47:45;19.00;82.00
9271;DHT22;4673;53.458;9.940;2022-08-03T00:50:11;19.00;82.10
9271;DHT22;4673;53.458;9.940;2022-08-03T00:52:37;19.00;82.50
9271;DHT22;4673;53.458;9.940;2022-08-03T00:55:03;19.00;82.60
9271;DHT22;4673;53.458;9.940;2022-08-03T00:57:30;18.90;83.00
9271;DHT22;4673;53.458;9.940;2022-08-03T00:59:56;18.90;83.30
9271;DHT22;4673;53.458;9.940;2022-08-03T01:02:25;18.80;83.20
9271;DHT22;4673;53.458;9.940;2022-08-03T01:04:51;18.80;83.30
9271;DHT22;4673;53.458;9.940;2022-08-03T01:07:26;18.80;83.30
9271;DHT22;4673;53.458;9.940;2022-08-03T01:12:51;18.70;83.20
9271;DHT22;4673;53.458;9.940;2022-08-03T01:15:44;18.70;83.30
9271;DHT22;4673;53.458;9.940;2022-08-03T01:18:20;18.60;83.20
9271;DHT22;4673;53.458;9.940;2022-08-03T01:20:48;18.60;83.40
9271;DHT22;4673;53.458;9.940;2022-08-03T01:29:40;18.40;83.60
9271;DHT22;4673;53.458;9.940;2022-08-03T01:32:17;18.30;83.90
9271;DHT22;4673;53.458;9.940;2022-08-03T01:34:51;18.30;84.20
9271;DHT22;4673;53.458;9.940;2022-08-03T01:37:25;18.20;84.30
9271;DHT22;4673;53.458;9.940;2022-08-03T01:39:54;18.20;84.50
9271;DHT22;4673;53.458;9.940;2022-08-03T01:42:22;18.10;84.60
9271;DHT22;4673;53.458;9.940;2022-08-03T01:44:50;18.10;84.60
9271;DHT22;4673;53.458;9.940;2022-08-03T01:47:19;18.10;84.80
9271;DHT22;4673;53.458;9.940;2022-08-03T01:49:45;18.10;85.00
9271;DHT22;4673;53.458;9.940;2022-08-03T01:52:13;18.10;85.10
9271;DHT22;4673;53.458;9.940;2022-08-03T01:54:44;18.10;85.00
9271;DHT22;4673;53.458;9.940;2022-08-03T01:57:12;18.10;85.00
9271;DHT22;4673;53.458;9.940;2022-08-03T01:59:39;18.10;85.10
9271;DHT22;4673;53.458;9.940;2022-08-03T02:02:07;18.10;85.20
9271;DHT22;4673;53.458;9.940;2022-08-03T02:04:34;18.00;85.10
9271;DHT22;4673;53.458;9.940;2022-08-03T02:07:01;18.00;85.20
9271;DHT22;4673;53.458;9.940;2022-08-03T02:09:28;18.00;85.10
9271;DHT22;4673;53.458;9.940;2022-08-03T02:11:55;18.00;85.10
9271;DHT22;4673;53.458;9.940;2022-08-03T02:14:22;18.00;85.20
9271;DHT22;4673;53.458;9.940;2022-08-03T02:16:49;18.00;85.20
9271;DHT22;4673;53.458;9.940;2022-08-03T02:19:17;18.00;85.30
9271;DHT22;4673;53.458;9.940;2022-08-03T02:21:44;18.00;85.10
9271;DHT22;4673;53.458;9.940;2022-08-03T02:24:10;18.00;84.90
9271;DHT22;4673;53.458;9.940;2022-08-03T02:26:38;18.10;84.70
9271;DHT22;4673;53.458;9.940;2022-08-03T02:29:10;18.10;84.60
9271;DHT22;4673;53.458;9.940;2022-08-03T02:31:39;18.20;84.30
9271;DHT22;4673;53.458;9.940;2022-08-03T02:34:10;18.20;83.90
9271;DHT22;4673;53.458;9.940;2022-08-03T02:36:38;18.20;83.50
9271;DHT22;4673;53.458;9.940;2022-08-03T02:39:05;18.20;83.20
9271;DHT22;4673;53.458;9.940;2022-08-03T02:41:42;18.20;83.00
9271;DHT22;4673;53.458;9.940;2022-08-03T02:44:11;18.20;82.70
9271;DHT22;4673;53.458;9.940;2022-08-03T02:46:39;18.20;82.50
9271;DHT22;4673;53.458;9.940;2022-08-03T02:49:06;18.20;82.30
9271;DHT22;4673;53.458;9.940;2022-08-03T02:51:34;18.20;82.40
9271;DHT22;4673;53.458;9.940;2022-08-03T02:54:02;18.20;82.40
9271;DHT22;4673;53.458;9.940;2022-08-03T02:56:29;18.20;82.40
9271;DHT22;4673;53.458;9.940;2022-08-03T02:58:57;18.20;82.50
9271;DHT22;4673;53.458;9.940;2022-08-03T03:01:24;18.20;82.30
9271;DHT22;4673;53.458;9.940;2022-08-03T03:03:52;18.20;82.20
9271;DHT22;4673;53.458;9.940;2022-08-03T03:06:20;18.30;82.00
9271;DHT22;4673;53.458;9.940;2022-08-03T03:08:47;18.30;81.80
9271;DHT22;4673;53.458;9.940;2022-08-03T03:11:14;18.20;81.40
9271;DHT22;4673;53.458;9.940;2022-08-03T03:13:42;18.30;81.40
9271;DHT22;4673;53.458;9.940;2022-08-03T03:16:11;18.30;81.50
9271;DHT22;4673;53.458;9.940;2022-08-03T03:18:39;18.30;81.40
9271;DHT22;4673;53.458;9.940;2022-08-03T03:21:07;18.20;81.20
9271;DHT22;4673;53.458;9.940;2022-08-03T03:23:38;18.30;81.10
9271;DHT22;4673;53.458;9.940;2022-08-03T03:26:06;18.20;81.10
9271;DHT22;4673;53.458;9.940;2022-08-03T03:28:32;18.20;81.00
9271;DHT22;4673;53.458;9.940;2022-08-03T03:30:58;18.20;81.10
9271;DHT22;4673;53.458;9.940;2022-08-03T03:33:25;18.20;81.30
9271;DHT22;4673;53.458;9.940;2022-08-03T03:35:51;18.10;81.20
9271;DHT22;4673;53.458;9.940;2022-08-03T03:38:18;18.20;81.30
9271;DHT22;4673;53.458;9.940;2022-08-03T03:40:44;18.20;81.40
9271;DHT22;4673;53.458;9.940;2022-08-03T03:43:11;18.20;81.50
9271;DHT22;4673;53.458;9.940;2022-08-03T03:45:39;18.20;81.60
9271;DHT22;4673;53.458;9.940;2022-08-03T03:48:06;18.20;81.60
9271;DHT22;4673;53.458;9.940;2022-08-03T03:50:33;18.20;81.70
9271;DHT22;4673;53.458;9.940;2022-08-03T03:52:59;18.30;81.80
9271;DHT22;4673;53.458;9.940;2022-08-03T03:55:24;18.20;81.70
9271;DHT22;4673;53.458;9.940;2022-08-03T03:57:50;18.30;81.80
9271;DHT22;4673;53.458;9.940;2022-08-03T04:00:17;18.40;81.40
9271;DHT22;4673;53.458;9.940;2022-08-03T04:02:44;18.40;81.20
9271;DHT22;4673;53.458;9.940;2022-08-03T04:05:10;18.50;81.20
9271;DHT22;4673;53.458;9.940;2022-08-03T04:08:00;18.50;81.10
9271;DHT22;4673;53.458;9.940;2022-08-03T04:13:38;18.60;80.70
9271;DHT22;4673;53.458;9.940;2022-08-03T04:16:07;18.70;80.60
9271;DHT22;4673;53.458;9.940;2022-08-03T04:18:34;18.90;80.40
9271;DHT22;4673;53.458;9.940;2022-08-03T04:21:03;18.90;80.30
9271;DHT22;4673;53.458;9.940;2022-08-03T04:23:33;18.90;79.90
9271;DHT22;4673;53.458;9.940;2022-08-03T04:26:01;19.00;79.40
9271;DHT22;4673;53.458;9.940;2022-08-03T04:28:28;19.20;78.90
9271;DHT22;4673;53.458;9.940;2022-08-03T04:30:55;19.30;78.40
9271;DHT22;4673;53.458;9.940;2022-08-03T04:33:22;19.40;78.00
9271;DHT22;4673;53.458;9.940;2022-08-03T04:35:51;19.40;77.80
9271;DHT22;4673;53.458;9.940;2022-08-03T04:38:20;19.50;77.60
9271;DHT22;4673;53.458;9.940;2022-08-03T04:40:47;19.50;77.40
9271;DHT22;4673;53.458;9.940;2022-08-03T04:43:14;19.50;77.50
9271;DHT22;4673;53.458;9.940;2022-08-03T04:45:41;19.50;77.20
9271;DHT22;4673;53.458;9.940;2022-08-03T04:48:08;19.50;77.30
9271;DHT22;4673;53.458;9.940;2022-08-03T04:50:34;19.50;77.00
9271;DHT22;4673;53.458;9.940;2022-08-03T04:53:00;19.60;76.90
9271;DHT22;4673;53.458;9.940;2022-08-03T04:55:30;19.90;75.90
9271;DHT22;4673;53.458;9.940;2022-08-03T04:57:57;20.20;75.20
9271;DHT22;4673;53.458;9.940;2022-08-03T05:00:24;20.50;73.50
9271;DHT22;4673;53.458;9.940;2022-08-03T05:02:50;20.70;72.30
9271;DHT22;4673;53.458;9.940;2022-08-03T05:05:16;20.90;71.30
9271;DHT22;4673;53.458;9.940;2022-08-03T05:07:42;21.00;70.70
9271;DHT22;4673;53.458;9.940;2022-08-03T05:10:10;21.10;70.30
9271;DHT22;4673;53.458;9.940;2022-08-03T05:12:36;21.20;69.50
9271;DHT22;4673;53.458;9.940;2022-08-03T05:15:03;21.40;69.00
9271;DHT22;4673;53.458;9.940;2022-08-03T05:17:29;21.40;68.80
9271;DHT22;4673;53.458;9.940;2022-08-03T05:19:55;21.30;68.70
9271;DHT22;4673;53.458;9.940;2022-08-03T05:22:21;21.40;68.30
9271;DHT22;4673;53.458;9.940;2022-08-03T05:24:47;21.50;68.20
9271;DHT22;4673;53.458;9.940;2022-08-03T05:27:13;21.50;68.10
9271;DHT22;4673;53.458;9.940;2022-08-03T05:29:44;21.70;68.20
9271;DHT22;4673;53.458;9.940;2022-08-03T05:32:10;22.10;67.00
9271;DHT22;4673;53.458;9.940;2022-08-03T05:34:36;22.50;66.20
9271;DHT22;4673;53.458;9.940;2022-08-03T05:37:01;22.70;64.80
9271;DHT22;4673;53.458;9.940;2022-08-03T05:39:27;22.80;63.80
9271;DHT22;4673;53.458;9.940;2022-08-03T05:41:53;22.80;63.50
9271;DHT22;4673;53.458;9.940;2022-08-03T05:44:18;22.80;63.20
9271;DHT22;4673;53.458;9.940;2022-08-03T05:46:44;22.80;62.90
9271;DHT22;4673;53.458;9.940;2022-08-03T05:49:10;22.80;62.50
9271;DHT22;4673;53.458;9.940;2022-08-03T05:51:35;22.80;62.60
9271;DHT22;4673;53.458;9.940;2022-08-03T05:54:01;22.90;62.60
9271;DHT22;4673;53.458;9.940;2022-08-03T05:56:27;23.00;62.50
9271;DHT22;4673;53.458;9.940;2022-08-03T05:58:53;23.10;62.00
9271;DHT22;4673;53.458;9.940;2022-08-03T06:01:20;23.70;61.40
9271;DHT22;4673;53.458;9.940;2022-08-03T06:03:49;24.60;58.20
9271;DHT22;4673;53.458;9.940;2022-08-03T06:06:15;25.20;56.80
9271;DHT22;4673;53.458;9.940;2022-08-03T06:08:42;25.90;54.60
9271;DHT22;4673;53.458;9.940;2022-08-03T06:11:08;26.70;50.60
9271;DHT22;4673;53.458;9.940;2022-08-03T06:13:34;27.10;48.30
9271;DHT22;4673;53.458;9.940;2022-08-03T06:16:00;27.20;47.00
9271;DHT22;4673;53.458;9.940;2022-08-03T06:18:26;26.90;46.50
9271;DHT22;4673;53.458;9.940;2022-08-03T06:20:52;26.50;45.90
9271;DHT22;4673;53.458;9.940;2022-08-03T06:23:17;26.10;47.60
9271;DHT22;4673;53.458;9.940;2022-08-03T06:25:43;25.80;47.70
9271;DHT22;4673;53.458;9.940;2022-08-03T06:28:09;25.70;48.60
9271;DHT22;4673;53.458;9.940;2022-08-03T06:30:34;25.70;48.40
9271;DHT22;4673;53.458;9.940;2022-08-03T06:33:00;25.50;48.90
9271;DHT22;4673;53.458;9.940;2022-08-03T06:35:26;25.30;49.40
9271;DHT22;4673;53.458;9.940;2022-08-03T06:37:53;25.10;50.80
9271;DHT22;4673;53.458;9.940;2022-08-03T06:40:20;25.00;51.60
9271;DHT22;4673;53.458;9.940;2022-08-03T06:42:56;24.80;52.10
9271;DHT22;4673;53.458;9.940;2022-08-03T06:45:22;24.80;52.40
9271;DHT22;4673;53.458;9.940;2022-08-03T06:48:02;24.80;52.20
9271;DHT22;4673;53.458;9.940;2022-08-03T06:50:29;24.80;52.20
9271;DHT22;4673;53.458;9.940;2022-08-03T06:52:54;24.80;52.90
9271;DHT22;4673;53.458;9.940;2022-08-03T06:55:20;24.70;53.50
9271;DHT22;4673;53.458;9.940;2022-08-03T06:57:46;24.70;53.90
9271;DHT22;4673;53.458;9.940;2022-08-03T07:00:12;24.70;54.30
9271;DHT22;4673;53.458;9.940;2022-08-03T07:02:39;24.80;54.00
9271;DHT22;4673;53.458;9.940;2022-08-03T07:05:05;24.80;54.50
9271;DHT22;4673;53.458;9.940;2022-08-03T07:07:31;24.80;54.50
9271;DHT22;4673;53.458;9.940;2022-08-03T07:09:57;24.90;54.80
9271;DHT22;4673;53.458;9.940;2022-08-03T07:12:22;24.80;53.30
9271;DHT22;4673;53.458;9.940;2022-08-03T07:14:48;24.80;53.50
9271;DHT22;4673;53.458;9.940;2022-08-03T07:17:13;24.90;53.50
9271;DHT22;4673;53.458;9.940;2022-08-03T07:19:39;24.90;53.00
9271;DHT22;4673;53.458;9.940;2022-08-03T07:22:05;25.00;52.70
9271;DHT22;4673;53.458;9.940;2022-08-03T07:24:31;25.00;53.20
9271;DHT22;4673;53.458;9.940;2022-08-03T07:26:56;25.00;53.30
9271;DHT22;4673;53.458;9.940;2022-08-03T07:29:22;25.10;52.50
9271;DHT22;4673;53.458;9.940;2022-08-03T07:31:47;25.10;52.30
9271;DHT22;4673;53.458;9.940;2022-08-03T07:34:13;25.20;52.00
9271;DHT22;4673;53.458;9.940;2022-08-03T07:36:39;25.30;52.00
9271;DHT22;4673;53.458;9.940;2022-08-03T07:39:05;25.50;51.10
9271;DHT22;4673;53.458;9.940;2022-08-03T07:41:30;25.50;50.60
9271;DHT22;4673;53.458;9.940;2022-08-03T07:43:56;25.60;50.30
9271;DHT22;4673;53.458;9.940;2022-08-03T07:46:22;25.70;49.30
9271;DHT22;4673;53.458;9.940;2022-08-03T07:48:47;25.70;49.70
9271;DHT22;4673;53.458;9.940;2022-08-03T07:51:13;25.70;49.60
9271;DHT22;4673;53.458;9.940;2022-08-03T07:53:39;25.80;49.20
9271;DHT22;4673;53.458;9.940;2022-08-03T07:56:04;25.90;48.80
9271;DHT22;4673;53.458;9.940;2022-08-03T07:58:30;26.00;47.90
9271;DHT22;4673;53.458;9.940;2022-08-03T08:00:56;26.10;47.20
9271;DHT22;4673;53.458;9.940;2022-08-03T08:03:22;26.20;47.60
9271;DHT22;4673;53.458;9.940;2022-08-03T08:05:48;26.20;47.50
9271;DHT22;4673;53.458;9.940;2022-08-03T08:08:13;26.30;47.10
9271;DHT22;4673;53.458;9.940;2022-08-03T08:10:39;26.20;47.10
9271;DHT22;4673;53.458;9.940;2022-08-03T08:13:05;26.20;47.50
9271;DHT22;4673;53.458;9.940;2022-08-03T08:15:31;26.10;48.30
9271;DHT22;4673;53.458;9.940;2022-08-03T08:17:59;26.10;47.40
9271;DHT22;4673;53.458;9.940;2022-08-03T08:20:33;26.20;47.50
9271;DHT22;4673;53.458;9.940;2022-08-03T08:23:01;26.30;47.80
9271;DHT22;4673;53.458;9.940;2022-08-03T08:25:28;26.50;47.80
9271;DHT22;4673;53.458;9.940;2022-08-03T08:27:55;26.50;46.90
9271;DHT22;4673;53.458;9.940;2022-08-03T08:30:22;26.50;47.10
9271;DHT22;4673;53.458;9.940;2022-08-03T08:32:48;26.60;47.60
9271;DHT22;4673;53.458;9.940;2022-08-03T08:35:15;26.70;47.80
9271;DHT22;4673;53.458;9.940;2022-08-03T08:37:42;26.70;46.50
9271;DHT22;4673;53.458;9.940;2022-08-03T08:40:09;26.70;46.00
9271;DHT22;4673;53.458;9.940;2022-08-03T08:42:39;26.80;46.70
9271;DHT22;4673;53.458;9.940;2022-08-03T08:45:06;26.80;46.50
9271;DHT22;4673;53.458;9.940;2022-08-03T08:47:38;26.90;46.70
9271;DHT22;4673;53.458;9.940;2022-08-03T08:50:05;27.00;46.90
9271;DHT22;4673;53.458;9.940;2022-08-03T08:52:33;27.10;46.60
9271;DHT22;4673;53.458;9.940;2022-08-03T08:55:04;27.30;45.80
9271;DHT22;4673;53.458;9.940;2022-08-03T08:57:35;27.50;46.40
9271;DHT22;4673;53.458;9.940;2022-08-03T09:00:07;27.60;45.60
9271;DHT22;4673;53.458;9.940;2022-08-03T09:02:35;27.70;46.00
9271;DHT22;4673;53.458;9.940;2022-08-03T09:05:00;27.80;45.40
9271;DHT22;4673;53.458;9.940;2022-08-03T09:07:27;27.90;44.60
9271;DHT22;4673;53.458;9.940;2022-08-03T09:09:53;28.00;44.60
9271;DHT22;4673;53.458;9.940;2022-08-03T09:12:19;28.10;45.10
9271;DHT22;4673;53.458;9.940;2022-08-03T09:14:45;28.20;43.90
9271;DHT22;4673;53.458;9.940;2022-08-03T09:17:10;28.20;44.40
9271;DHT22;4673;53.458;9.940;2022-08-03T09:19:36;28.30;43.70
9271;DHT22;4673;53.458;9.940;2022-08-03T09:22:16;28.30;42.80
9271;DHT22;4673;53.458;9.940;2022-08-03T09:25:05;28.30;42.80
9271;DHT22;4673;53.458;9.940;2022-08-03T09:27:43;28.10;42.90
9271;DHT22;4673;53.458;9.940;2022-08-03T09:30:17;28.00;43.30
9271;DHT22;4673;53.458;9.940;2022-08-03T09:32:43;28.10;43.20
9271;DHT22;4673;53.458;9.940;2022-08-03T09:35:11;28.10;43.30
9271;DHT22;4673;53.458;9.940;2022-08-03T09:37:37;28.20;43.60
9271;DHT22;4673;53.458;9.940;2022-08-03T09:40:03;28.30;43.20
9271;DHT22;4673;53.458;9.940;2022-08-03T09:42:29;28.50;42.20
9271;DHT22;4673;53.458;9.940;2022-08-03T09:44:54;28.50;42.20
9271;DHT22;4673;53.458;9.940;2022-08-03T09:47:31;28.60;42.00
9271;DHT22;4673;53.458;9.940;2022-08-03T09:50:05;28.70;40.70
9271;DHT22;4673;53.458;9.940;2022-08-03T09:52:31;28.70;41.50
9271;DHT22;4673;53.458;9.940;2022-08-03T09:54:58;28.80;41.20
9271;DHT22;4673;53.458;9.940;2022-08-03T09:57:26;28.80;40.60
9271;DHT22;4673;53.458;9.940;2022-08-03T09:59:53;28.80;40.40
9271;DHT22;4673;53.458;9.940;2022-08-03T10:02:26;28.60;40.30
9271;DHT22;4673;53.458;9.940;2022-08-03T10:04:53;28.60;40.80
9271;DHT22;4673;53.458;9.940;2022-08-03T10:07:20;28.70;40.50
9271;DHT22;4673;53.458;9.940;2022-08-03T10:10:00;28.80;40.30
9271;DHT22;4673;53.458;9.940;2022-08-03T10:12:26;28.90;41.00
9271;DHT22;4673;53.458;9.940;2022-08-03T10:14:53;28.90;39.50
9271;DHT22;4673;53.458;9.940;2022-08-03T10:17:20;29.00;39.40
9271;DHT22;4673;53.458;9.940;2022-08-03T10:19:47;29.20;40.20
9271;DHT22;4673;53.458;9.940;2022-08-03T10:22:14;29.20;38.70
9271;DHT22;4673;53.458;9.940;2022-08-03T10:24:47;29.20;38.40
9271;DHT22;4673;53.458;9.940;2022-08-03T10:27:14;29.20;38.50
9271;DHT22;4673;53.458;9.940;2022-08-03T10:29:46;29.20;38.80
9271;DHT22;4673;53.458;9.940;2022-08-03T10:32:20;29.10;38.50
9271;DHT22;4673;53.458;9.940;2022-08-03T10:34:49;29.10;38.40
9271;DHT22;4673;53.458;9.940;2022-08-03T10:37:16;29.20;39.50
9271;DHT22;4673;53.458;9.940;2022-08-03T10:39:43;29.30;39.50
9271;DHT22;4673;53.458;9.940;2022-08-03T10:42:20;29.30;39.20
9271;DHT22;4673;53.458;9.940;2022-08-03T10:44:49;29.40;38.50
9271;DHT22;4673;53.458;9.940;2022-08-03T10:47:16;29.40;37.80
9271;DHT22;4673;53.458;9.940;2022-08-03T10:49:42;29.40;37.70
9271;DHT22;4673;53.458;9.940;2022-08-03T10:52:08;29.40;37.80
9271;DHT22;4673;53.458;9.940;2022-08-03T10:54:37;29.40;37.80
9271;DHT22;4673;53.458;9.940;2022-08-03T11:00:07;29.70;36.90
9271;DHT22;4673;53.458;9.940;2022-08-03T11:05:29;29.90;36.70
9271;DHT22;4673;53.458;9.940;2022-08-03T11:10:42;30.10;36.10
9271;DHT22;4673;53.458;9.940;2022-08-03T11:13:10;30.20;36.20
9271;DHT22;4673;53.458;9.940;2022-08-03T11:15:38;30.30;35.30
9271;DHT22;4673;53.458;9.940;2022-08-03T11:18:09;30.40;33.30
9271;DHT22;4673;53.458;9.940;2022-08-03T11:20:48;30.40;33.40
9271;DHT22;4673;53.458;9.940;2022-08-03T11:23:15;30.50;33.40
9271;DHT22;4673;53.458;9.940;2022-08-03T11:26:07;30.50;33.70
9271;DHT22;4673;53.458;9.940;2022-08-03T11:28:33;30.60;33.90
9271;DHT22;4673;53.458;9.940;2022-08-03T11:34:06;30.60;32.20
9271;DHT22;4673;53.458;9.940;2022-08-03T11:37:17;30.60;32.50
9271;DHT22;4673;53.458;9.940;2022-08-03T11:39:45;30.60;31.70
9271;DHT22;4673;53.458;9.940;2022-08-03T11:44:51;30.90;31.40
9271;DHT22;4673;53.458;9.940;2022-08-03T11:47:17;31.00;32.20
9271;DHT22;4673;53.458;9.940;2022-08-03T11:49:47;31.00;30.60
9271;DHT22;4673;53.458;9.940;2022-08-03T11:52:13;31.00;31.80
9271;DHT22;4673;53.458;9.940;2022-08-03T11:54:40;31.10;29.00
9271;DHT22;4673;53.458;9.940;2022-08-03T11:57:06;31.00;29.20
9271;DHT22;4673;53.458;9.940;2022-08-03T11:59:35;31.00;29.10
9271;DHT22;4673;53.458;9.940;2022-08-03T12:02:08;31.00;30.00
9271;DHT22;4673;53.458;9.940;2022-08-03T12:04:54;31.00;28.70
9271;DHT22;4673;53.458;9.940;2022-08-03T12:07:25;30.90;29.40
9271;DHT22;4673;53.458;9.940;2022-08-03T12:10:23;30.90;29.50
9271;DHT22;4673;53.458;9.940;2022-08-03T12:12:54;30.90;30.30
9271;DHT22;4673;53.458;9.940;2022-08-03T12:15:31;30.90;28.80
9271;DHT22;4673;53.458;9.940;2022-08-03T12:18:01;31.00;29.30
9271;DHT22;4673;53.458;9.940;2022-08-03T12:20:30;31.00;27.90
9271;DHT22;4673;53.458;9.940;2022-08-03T12:23:06;31.00;27.70
9271;DHT22;4673;53.458;9.940;2022-08-03T12:25:33;31.00;27.90
9271;DHT22;4673;53.458;9.940;2022-08-03T12:28:32;31.00;27.60
9271;DHT22;4673;53.458;9.940;2022-08-03T12:31:06;31.00;28.70
9271;DHT22;4673;53.458;9.940;2022-08-03T12:33:59;30.90;25.90
9271;DHT22;4673;53.458;9.940;2022-08-03T12:36:28;30.70;26.80
9271;DHT22;4673;53.458;9.940;2022-08-03T12:39:05;30.70;28.80
9271;DHT22;4673;53.458;9.940;2022-08-03T12:41:36;30.80;29.50
9271;DHT22;4673;53.458;9.940;2022-08-03T12:44:03;30.90;28.80
9271;DHT22;4673;53.458;9.940;2022-08-03T12:46:40;30.90;28.90
9271;DHT22;4673;53.458;9.940;2022-08-03T12:49:14;31.00;29.40
9271;DHT22;4673;53.458;9.940;2022-08-03T12:54:28;31.10;28.10
9271;DHT22;4673;53.458;9.940;2022-08-03T12:57:01;31.20;26.60
9271;DHT22;4673;53.458;9.940;2022-08-03T12:59:28;31.30;26.20
9271;DHT22;4673;53.458;9.940;2022-08-03T13:01:54;31.30;26.10
9271;DHT22;4673;53.458;9.940;2022-08-03T13:04:34;31.30;25.70
9271;DHT22;4673;53.458;9.940;2022-08-03T13:07:05;31.30;26.20
9271;DHT22;4673;53.458;9.940;2022-08-03T13:14:46;31.60;26.70
9271;DHT22;4673;53.458;9.940;2022-08-03T13:17:12;31.80;25.40
9271;DHT22;4673;53.458;9.940;2022-08-03T13:19:38;31.80;25.50
9271;DHT22;4673;53.458;9.940;2022-08-03T13:22:14;31.90;26.10
9271;DHT22;4673;53.458;9.940;2022-08-03T13:24:40;32.00;26.50
9271;DHT22;4673;53.458;9.940;2022-08-03T13:27:07;32.00;25.50
9271;DHT22;4673;53.458;9.940;2022-08-03T13:29:33;32.10;25.50
9271;DHT22;4673;53.458;9.940;2022-08-03T13:31:59;32.10;26.00
9271;DHT22;4673;53.458;9.940;2022-08-03T13:34:25;32.00;25.40
9271;DHT22;4673;53.458;9.940;2022-08-03T13:36:51;32.00;25.20
9271;DHT22;4673;53.458;9.940;2022-08-03T13:39:17;32.00;24.70
9271;DHT22;4673;53.458;9.940;2022-08-03T13:41:44;31.90;24.90
9271;DHT22;4673;53.458;9.940;2022-08-03T13:44:10;31.80;24.90
9271;DHT22;4673;53.458;9.940;2022-08-03T13:46:36;31.80;25.30
9271;DHT22;4673;53.458;9.940;2022-08-03T13:49:02;31.60;25.20
9271;DHT22;4673;53.458;9.940;2022-08-03T13:51:27;31.50;25.60
9271;DHT22;4673;53.458;9.940;2022-08-03T13:53:53;31.60;24.90
9271;DHT22;4673;53.458;9.940;2022-08-03T13:56:19;31.60;23.60
9271;DHT22;4673;53.458;9.940;2022-08-03T13:58:44;31.60;25.20
9271;DHT22;4673;53.458;9.940;2022-08-03T14:01:10;31.60;24.70
9271;DHT22;4673;53.458;9.940;2022-08-03T14:03:36;31.60;25.20
9271;DHT22;4673;53.458;9.940;2022-08-03T14:06:02;31.60;24.50
9271;DHT22;4673;53.458;9.940;2022-08-03T14:08:27;31.60;24.60
9271;DHT22;4673;53.458;9.940;2022-08-03T14:10:53;31.80;23.90
9271;DHT22;4673;53.458;9.940;2022-08-03T14:13:19;31.80;23.50
9271;DHT22;4673;53.458;9.940;2022-08-03T14:15:45;31.80;24.10
9271;DHT22;4673;53.458;9.940;2022-08-03T14:18:11;31.80;23.50
9271;DHT22;4673;53.458;9.940;2022-08-03T14:20:37;31.80;24.00
9271;DHT22;4673;53.458;9.940;2022-08-03T14:23:02;31.80;23.40
9271;DHT22;4673;53.458;9.940;2022-08-03T14:25:28;31.70;23.30
9271;DHT22;4673;53.458;9.940;2022-08-03T14:27:55;31.80;23.60
9271;DHT22;4673;53.458;9.940;2022-08-03T14:30:20;31.80;24.60
9271;DHT22;4673;53.458;9.940;2022-08-03T14:32:46;31.70;23.50
9271;DHT22;4673;53.458;9.940;2022-08-03T14:35:12;31.70;23.70
9271;DHT22;4673;53.458;9.940;2022-08-03T14:37:37;31.60;23.80
9271;DHT22;4673;53.458;9.940;2022-08-03T14:40:04;31.60;23.90
9271;DHT22;4673;53.458;9.940;2022-08-03T14:42:29;31.50;23.50
9271;DHT22;4673;53.458;9.940;2022-08-03T14:44:55;31.30;24.10
9271;DHT22;4673;53.458;9.940;2022-08-03T14:47:21;31.30;25.00
9271;DHT22;4673;53.458;9.940;2022-08-03T14:49:46;31.30;25.70
9271;DHT22;4673;53.458;9.940;2022-08-03T14:52:12;31.30;25.80
9271;DHT22;4673;53.458;9.940;2022-08-03T14:54:37;31.30;26.40
9271;DHT22;4673;53.458;9.940;2022-08-03T14:57:03;31.30;26.50
9271;DHT22;4673;53.458;9.940;2022-08-03T14:59:29;31.30;26.10
9271;DHT22;4673;53.458;9.940;2022-08-03T15:01:54;31.30;25.60
9271;DHT22;4673;53.458;9.940;2022-08-03T15:04:20;31.40;24.60
9271;DHT22;4673;53.458;9.940;2022-08-03T15:06:46;31.50;24.80
9271;DHT22;4673;53.458;9.940;2022-08-03T15:09:12;31.60;24.00
9271;DHT22;4673;53.458;9.940;2022-08-03T15:11:37;31.60;23.20
9271;DHT22;4673;53.458;9.940;2022-08-03T15:14:03;31.60;23.70
9271;DHT22;4673;53.458;9.940;2022-08-03T15:16:29;31.60;23.80
9271;DHT22;4673;53.458;9.940;2022-08-03T15:18:54;31.70;24.50
9271;DHT22;4673;53.458;9.940;2022-08-03T15:21:20;31.70;23.10
9271;DHT22;4673;53.458;9.940;2022-08-03T15:23:46;31.70;22.60
9271;DHT22;4673;53.458;9.940;2022-08-03T15:26:11;31.70;22.80
9271;DHT22;4673;53.458;9.940;2022-08-03T15:28:37;31.80;22.70
9271;DHT22;4673;53.458;9.940;2022-08-03T15:31:03;31.90;21.70
9271;DHT22;4673;53.458;9.940;2022-08-03T15:33:28;31.70;21.40
9271;DHT22;4673;53.458;9.940;2022-08-03T15:35:55;31.60;20.50
9271;DHT22;4673;53.458;9.940;2022-08-03T15:38:21;31.40;22.40
9271;DHT22;4673;53.458;9.940;2022-08-03T15:40:50;31.50;22.40
9271;DHT22;4673;53.458;9.940;2022-08-03T15:43:21;31.60;22.00
9271;DHT22;4673;53.458;9.940;2022-08-03T15:45:47;31.60;22.50
9271;DHT22;4673;53.458;9.940;2022-08-03T15:48:13;31.60;22.20
9271;DHT22;4673;53.458;9.940;2022-08-03T15:50:39;31.50;21.70
9271;DHT22;4673;53.458;9.940;2022-08-03T15:53:04;31.30;22.40
9271;DHT22;4673;53.458;9.940;2022-08-03T15:55:31;31.10;21.90
9271;DHT22;4673;53.458;9.940;2022-08-03T15:57:57;31.10;22.10
9271;DHT22;4673;53.458;9.940;2022-08-03T16:00:22;31.00;21.70
9271;DHT22;4673;53.458;9.940;2022-08-03T16:02:48;31.00;21.50
9271;DHT22;4673;53.458;9.940;2022-08-03T16:05:14;31.00;21.80
9271;DHT22;4673;53.458;9.940;2022-08-03T16:07:39;31.20;21.70
9271;DHT22;4673;53.458;9.940;2022-08-03T16:10:10;31.30;21.30
9271;DHT22;4673;53.458;9.940;2022-08-03T16:12:36;31.30;21.70
9271;DHT22;4673;53.458;9.940;2022-08-03T16:15:03;31.30;21.90
9271;DHT22;4673;53.458;9.940;2022-08-03T16:17:29;31.20;22.70
9271;DHT22;4673;53.458;9.940;2022-08-03T16:19:55;31.20;23.00
9271;DHT22;4673;53.458;9.940;2022-08-03T16:22:22;31.10;23.20
9271;DHT22;4673;53.458;9.940;2022-08-03T16:24:47;31.00;23.10
9271;DHT22;4673;53.458;9.940;2022-08-03T16:27:13;31.10;23.20
9271;DHT22;4673;53.458;9.940;2022-08-03T16:29:39;31.20;24.00
9271;DHT22;4673;53.458;9.940;2022-08-03T16:32:05;31.30;23.40
9271;DHT22;4673;53.458;9.940;2022-08-03T16:34:35;31.30;22.90
9271;DHT22;4673;53.458;9.940;2022-08-03T16:37:00;31.40;23.10
9271;DHT22;4673;53.458;9.940;2022-08-03T16:39:26;31.50;22.80
9271;DHT22;4673;53.458;9.940;2022-08-03T16:41:52;31.40;23.10